createdAt,value
2019-02-05T00:00:47.000Z,22
2019-02-05T00:01:47.000Z,22
2019-02-05T00:02:47.000Z,22
2019-02-05T00:03:47.000Z,22
2019-02-05T00:04:47.000Z,22
2019-02-05T00:05:47.000Z,22
2019-02-05T00:06:47.000Z,22
2019-02-05T00:07:47.000Z,22
2019-02-05T00:08:47.000Z,22
2019-02-05T00:09:47.000Z,22
2019-02-05T00:10:47.000Z,22
2019-02-05T00:11:47.000Z,22
2019-02-05T00:12:47.000Z,22
2019-02-05T00:13:47.000Z,22
2019-02-05T00:14:47.000Z,22
2019-02-05T00:16:47.000Z,22
2019-02-05T00:17:47.000Z,22
2019-02-05T00:18:47.000Z,22
2019-02-05T00:20:47.000Z,22
2019-02-05T00:21:47.000Z,22
2019-02-05T00:22:47.000Z,22
2019-02-05T00:23:47.000Z,22
2019-02-05T00:24:47.000Z,22
2019-02-05T00:25:47.000Z,22
2019-02-05T00:26:47.000Z,22
2019-02-05T00:27:47.000Z,22
2019-02-05T00:29:47.000Z,22
2019-02-05T00:30:48.000Z,22
2019-02-05T00:31:48.000Z,22
2019-02-05T00:33:48.000Z,22
2019-02-05T00:34:48.000Z,22
2019-02-05T00:35:48.000Z,22
2019-02-05T00:36:48.000Z,22
2019-02-05T00:37:48.000Z,22
2019-02-05T00:38:48.000Z,22
2019-02-05T00:39:48.000Z,22
2019-02-05T00:41:48.000Z,22
2019-02-05T00:43:48.000Z,22
2019-02-05T00:44:48.000Z,22
2019-02-05T00:45:48.000Z,22
2019-02-05T00:47:48.000Z,22
2019-02-05T00:48:48.000Z,22
2019-02-05T00:50:48.000Z,22
2019-02-05T00:51:48.000Z,22
2019-02-05T00:52:48.000Z,22
2019-02-05T00:53:48.000Z,22
2019-02-05T00:54:48.000Z,22
2019-02-05T00:55:48.000Z,22
2019-02-05T00:56:48.000Z,22
2019-02-05T00:58:48.000Z,22
2019-02-05T00:59:48.000Z,22
2019-02-05T01:00:48.000Z,22
2019-02-05T01:02:48.000Z,22
2019-02-05T01:04:48.000Z,22
2019-02-05T01:05:48.000Z,22
2019-02-05T01:06:48.000Z,22
2019-02-05T01:07:48.000Z,22
2019-02-05T01:08:48.000Z,22
2019-02-05T01:09:48.000Z,22
2019-02-05T01:10:48.000Z,22
2019-02-05T01:12:48.000Z,22
2019-02-05T01:13:48.000Z,22
2019-02-05T01:14:48.000Z,22
2019-02-05T01:15:48.000Z,22
2019-02-05T01:16:48.000Z,22
2019-02-05T01:17:48.000Z,22
2019-02-05T01:18:48.000Z,22
2019-02-05T01:19:48.000Z,22
2019-02-05T01:20:48.000Z,22
2019-02-05T01:21:48.000Z,22
2019-02-05T01:22:48.000Z,22
2019-02-05T01:23:48.000Z,22
2019-02-05T01:24:48.000Z,22
2019-02-05T01:25:48.000Z,22
2019-02-05T01:26:48.000Z,22
2019-02-05T01:27:48.000Z,22
2019-02-05T01:28:48.000Z,22
2019-02-05T01:29:48.000Z,22
2019-02-05T01:30:48.000Z,22
2019-02-05T01:31:48.000Z,22
2019-02-05T01:32:48.000Z,22
2019-02-05T01:33:48.000Z,22
2019-02-05T01:34:48.000Z,22
2019-02-05T01:35:48.000Z,22
2019-02-05T01:36:48.000Z,22
2019-02-05T01:37:48.000Z,22
2019-02-05T01:38:48.000Z,22
2019-02-05T01:39:48.000Z,22
2019-02-05T01:40:48.000Z,22
2019-02-05T01:41:48.000Z,22
2019-02-05T01:42:48.000Z,22
2019-02-05T01:43:48.000Z,22
2019-02-05T01:44:48.000Z,22
2019-02-05T01:46:48.000Z,22
2019-02-05T01:47:48.000Z,22
2019-02-05T01:48:48.000Z,22
2019-02-05T01:49:48.000Z,22
2019-02-05T01:50:48.000Z,22
2019-02-05T01:51:48.000Z,22
2019-02-05T01:52:48.000Z,22
2019-02-05T01:53:48.000Z,22
2019-02-05T01:54:48.000Z,22
2019-02-05T01:55:48.000Z,22
2019-02-05T01:56:48.000Z,22
2019-02-05T01:58:48.000Z,22
2019-02-05T01:59:48.000Z,22
2019-02-05T02:00:48.000Z,22
2019-02-05T02:02:48.000Z,22
2019-02-05T02:03:48.000Z,22
2019-02-05T02:04:48.000Z,22
2019-02-05T02:06:48.000Z,22
2019-02-05T02:08:48.000Z,22
2019-02-05T02:09:48.000Z,22
2019-02-05T02:10:48.000Z,22
2019-02-05T02:11:48.000Z,22
2019-02-05T02:12:48.000Z,22
2019-02-05T02:13:48.000Z,22
2019-02-05T02:14:48.000Z,22
2019-02-05T02:15:48.000Z,22
2019-02-05T02:16:48.000Z,22
2019-02-05T02:17:48.000Z,22
2019-02-05T02:18:48.000Z,22
2019-02-05T02:19:48.000Z,22
2019-02-05T02:20:48.000Z,22
2019-02-05T02:21:48.000Z,22
2019-02-05T02:22:48.000Z,22
2019-02-05T02:23:48.000Z,22
2019-02-05T02:24:48.000Z,22
2019-02-05T02:25:48.000Z,22
2019-02-05T02:26:48.000Z,22
2019-02-05T02:27:48.000Z,22
2019-02-05T02:28:48.000Z,22
2019-02-05T02:29:48.000Z,22
2019-02-05T02:30:48.000Z,22
2019-02-05T02:31:48.000Z,22
2019-02-05T02:32:48.000Z,22
2019-02-05T02:33:48.000Z,22
2019-02-05T02:34:48.000Z,22
2019-02-05T02:35:48.000Z,22
2019-02-05T02:36:48.000Z,22
2019-02-05T02:37:48.000Z,22
2019-02-05T02:38:48.000Z,22
2019-02-05T02:39:48.000Z,22
2019-02-05T02:40:48.000Z,22
2019-02-05T02:41:48.000Z,22
2019-02-05T02:42:48.000Z,22
2019-02-05T02:43:48.000Z,22
2019-02-05T02:44:48.000Z,22
2019-02-05T02:45:48.000Z,22
2019-02-05T02:47:48.000Z,22
2019-02-05T02:49:48.000Z,22
2019-02-05T02:50:48.000Z,22
2019-02-05T02:51:48.000Z,22
2019-02-05T02:52:48.000Z,22
2019-02-05T02:54:48.000Z,22
2019-02-05T02:55:48.000Z,22
2019-02-05T02:56:48.000Z,22
2019-02-05T02:57:48.000Z,22
2019-02-05T02:58:48.000Z,22
2019-02-05T02:59:48.000Z,22
2019-02-05T03:00:48.000Z,22
2019-02-05T03:01:48.000Z,22
2019-02-05T03:02:48.000Z,22
2019-02-05T03:03:48.000Z,22
2019-02-05T03:04:48.000Z,22
2019-02-05T03:06:48.000Z,22
2019-02-05T03:07:48.000Z,22
2019-02-05T03:08:48.000Z,22
2019-02-05T03:09:48.000Z,22
2019-02-05T03:10:48.000Z,22
2019-02-05T03:11:48.000Z,22
2019-02-05T03:12:48.000Z,22
2019-02-05T03:13:48.000Z,22
2019-02-05T03:14:48.000Z,22
2019-02-05T03:15:48.000Z,22
2019-02-05T03:16:48.000Z,22
2019-02-05T03:17:48.000Z,22
2019-02-05T03:18:48.000Z,22
2019-02-05T03:19:48.000Z,22
2019-02-05T03:20:48.000Z,22
2019-02-05T03:21:48.000Z,22
2019-02-05T03:22:48.000Z,22
2019-02-05T03:23:48.000Z,22
2019-02-05T03:24:48.000Z,22
2019-02-05T03:25:48.000Z,22
2019-02-05T03:26:48.000Z,22
2019-02-05T03:27:48.000Z,22
2019-02-05T03:28:48.000Z,22
2019-02-05T03:29:48.000Z,22
2019-02-05T03:30:48.000Z,22
2019-02-05T03:31:48.000Z,22
2019-02-05T03:32:48.000Z,22
2019-02-05T03:33:48.000Z,22
2019-02-05T03:35:48.000Z,22
2019-02-05T03:36:48.000Z,22
2019-02-05T03:37:48.000Z,22
2019-02-05T03:38:48.000Z,22
2019-02-05T03:39:48.000Z,22
2019-02-05T03:40:48.000Z,22
2019-02-05T03:41:48.000Z,22
2019-02-05T03:42:48.000Z,22
2019-02-05T03:44:48.000Z,22
2019-02-05T03:45:48.000Z,22
2019-02-05T03:46:48.000Z,22
2019-02-05T03:47:48.000Z,22
2019-02-05T03:49:48.000Z,22
2019-02-05T03:50:48.000Z,22
2019-02-05T03:51:48.000Z,22
2019-02-05T03:52:48.000Z,22
2019-02-05T03:53:48.000Z,22
2019-02-05T03:54:48.000Z,22
2019-02-05T03:55:48.000Z,22
2019-02-05T03:57:48.000Z,22
2019-02-05T03:58:48.000Z,22
2019-02-05T03:59:48.000Z,22
2019-02-05T04:01:48.000Z,22
2019-02-05T04:02:48.000Z,22
2019-02-05T04:03:48.000Z,22
2019-02-05T04:04:48.000Z,22
2019-02-05T04:05:48.000Z,22
2019-02-05T04:06:48.000Z,22
2019-02-05T04:07:48.000Z,22
2019-02-05T04:08:48.000Z,22
2019-02-05T04:09:48.000Z,22
2019-02-05T04:10:48.000Z,22
2019-02-05T04:11:48.000Z,22
2019-02-05T04:12:48.000Z,22
2019-02-05T04:13:48.000Z,22
2019-02-05T04:14:48.000Z,22
2019-02-05T04:15:48.000Z,22
2019-02-05T04:16:48.000Z,22
2019-02-05T04:18:48.000Z,22
2019-02-05T04:20:48.000Z,22
2019-02-05T04:21:48.000Z,22
2019-02-05T04:22:48.000Z,22
2019-02-05T04:23:48.000Z,22
2019-02-05T04:24:48.000Z,22
2019-02-05T04:26:48.000Z,22
2019-02-05T04:27:48.000Z,22
2019-02-05T04:28:48.000Z,22
2019-02-05T04:29:48.000Z,22
2019-02-05T04:30:48.000Z,22
2019-02-05T04:31:48.000Z,22
2019-02-05T04:32:48.000Z,22
2019-02-05T04:33:48.000Z,22
2019-02-05T04:35:48.000Z,22
2019-02-05T04:36:48.000Z,22
2019-02-05T04:37:48.000Z,22
2019-02-05T04:38:48.000Z,22
2019-02-05T04:39:48.000Z,22
2019-02-05T04:40:48.000Z,22
2019-02-05T04:41:48.000Z,22
2019-02-05T04:42:48.000Z,22
2019-02-05T04:44:48.000Z,22
2019-02-05T04:45:48.000Z,22
2019-02-05T04:46:48.000Z,22
2019-02-05T04:47:48.000Z,22
2019-02-05T04:48:48.000Z,22
2019-02-05T04:49:48.000Z,22
2019-02-05T04:50:48.000Z,22
2019-02-05T04:51:48.000Z,22
2019-02-05T04:52:48.000Z,22
2019-02-05T04:53:48.000Z,22
2019-02-05T04:54:48.000Z,22
2019-02-05T04:55:48.000Z,22
2019-02-05T04:56:48.000Z,22
2019-02-05T04:58:48.000Z,22
2019-02-05T04:59:48.000Z,22
2019-02-05T05:00:48.000Z,22
2019-02-05T05:01:48.000Z,22
2019-02-05T05:02:48.000Z,22
2019-02-05T05:03:48.000Z,22
2019-02-05T05:04:48.000Z,22
2019-02-05T05:05:48.000Z,22
2019-02-05T05:06:48.000Z,22
2019-02-05T05:07:48.000Z,22
2019-02-05T05:08:48.000Z,22
2019-02-05T05:09:48.000Z,22
2019-02-05T05:10:48.000Z,22
2019-02-05T05:11:48.000Z,22
2019-02-05T05:12:48.000Z,22
2019-02-05T05:13:48.000Z,22
2019-02-05T05:15:48.000Z,22
2019-02-05T05:16:48.000Z,22
2019-02-05T05:17:48.000Z,22
2019-02-05T05:18:48.000Z,22
2019-02-05T05:19:48.000Z,22
2019-02-05T05:20:48.000Z,23
2019-02-05T05:21:48.000Z,23
2019-02-05T05:22:48.000Z,23
2019-02-05T05:23:48.000Z,23
2019-02-05T05:24:48.000Z,23
2019-02-05T05:25:48.000Z,23
2019-02-05T05:26:48.000Z,24
2019-02-05T05:27:48.000Z,24
2019-02-05T05:28:48.000Z,24
2019-02-05T05:29:48.000Z,24
2019-02-05T05:30:48.000Z,24
2019-02-05T05:31:48.000Z,24
2019-02-05T05:32:48.000Z,24
2019-02-05T05:34:48.000Z,25
2019-02-05T05:35:48.000Z,25
2019-02-05T05:37:48.000Z,25
2019-02-05T05:39:48.000Z,25
2019-02-05T05:40:48.000Z,25
2019-02-05T05:41:48.000Z,25
2019-02-05T05:43:48.000Z,25
2019-02-05T05:44:48.000Z,25
2019-02-05T05:45:48.000Z,25
2019-02-05T05:46:48.000Z,25
2019-02-05T05:47:48.000Z,25
2019-02-05T05:48:48.000Z,26
2019-02-05T05:49:48.000Z,26
2019-02-05T05:50:48.000Z,26
2019-02-05T05:51:48.000Z,26
2019-02-05T05:52:48.000Z,26
2019-02-05T05:53:48.000Z,26
2019-02-05T05:54:48.000Z,26
2019-02-05T05:55:48.000Z,26
2019-02-05T05:56:48.000Z,26
2019-02-05T05:57:48.000Z,26
2019-02-05T05:59:48.000Z,26
2019-02-05T06:00:48.000Z,26
2019-02-05T06:01:48.000Z,26
2019-02-05T06:02:48.000Z,26
2019-02-05T06:03:48.000Z,26
2019-02-05T06:04:48.000Z,26
2019-02-05T06:05:48.000Z,26
2019-02-05T06:06:48.000Z,26
2019-02-05T06:07:48.000Z,26
2019-02-05T06:08:48.000Z,26
2019-02-05T06:09:48.000Z,26
2019-02-05T06:10:48.000Z,26
2019-02-05T06:11:48.000Z,26
2019-02-05T06:12:48.000Z,26
2019-02-05T06:13:48.000Z,26
2019-02-05T06:14:48.000Z,26
2019-02-05T06:15:48.000Z,26
2019-02-05T06:16:48.000Z,26
2019-02-05T06:17:48.000Z,26
2019-02-05T06:19:48.000Z,26
2019-02-05T06:20:48.000Z,26
2019-02-05T06:21:48.000Z,26
2019-02-05T06:22:48.000Z,26
2019-02-05T06:23:48.000Z,26
2019-02-05T06:24:48.000Z,26
2019-02-05T06:26:48.000Z,26
2019-02-05T06:27:48.000Z,26
2019-02-05T06:28:48.000Z,26
2019-02-05T06:29:48.000Z,26
2019-02-05T06:30:48.000Z,26
2019-02-05T06:32:48.000Z,26
2019-02-05T06:33:48.000Z,26
2019-02-05T06:34:48.000Z,26
2019-02-05T06:35:48.000Z,26
2019-02-05T06:36:48.000Z,26
2019-02-05T06:37:48.000Z,26
2019-02-05T06:38:48.000Z,26
2019-02-05T06:39:48.000Z,26
2019-02-05T06:41:48.000Z,26
2019-02-05T06:43:48.000Z,26
2019-02-05T06:44:48.000Z,26
2019-02-05T06:45:48.000Z,26
2019-02-05T06:46:48.000Z,26
2019-02-05T06:47:48.000Z,26
2019-02-05T06:48:48.000Z,26
2019-02-05T06:49:48.000Z,26
2019-02-05T06:51:48.000Z,25
2019-02-05T06:52:48.000Z,25
2019-02-05T06:53:48.000Z,25
2019-02-05T06:54:48.000Z,25
2019-02-05T06:55:48.000Z,25
2019-02-05T06:56:48.000Z,25
2019-02-05T06:57:48.000Z,25
2019-02-05T06:58:48.000Z,25
2019-02-05T06:59:47.000Z,25
2019-02-05T07:01:47.000Z,25
2019-02-05T07:02:47.000Z,25
2019-02-05T07:04:47.000Z,25
2019-02-05T07:05:47.000Z,25
2019-02-05T07:06:47.000Z,25
2019-02-05T07:07:47.000Z,26
2019-02-05T07:08:47.000Z,26
2019-02-05T07:09:47.000Z,26
2019-02-05T07:10:47.000Z,26
2019-02-05T07:11:47.000Z,26
2019-02-05T07:12:47.000Z,26
2019-02-05T07:13:47.000Z,26
2019-02-05T07:14:47.000Z,26
2019-02-05T07:16:47.000Z,26
2019-02-05T07:17:47.000Z,26
2019-02-05T07:18:47.000Z,26
2019-02-05T07:19:47.000Z,27
2019-02-05T07:20:47.000Z,27
2019-02-05T07:21:47.000Z,27
2019-02-05T07:22:47.000Z,27
2019-02-05T07:23:47.000Z,27
2019-02-05T07:24:47.000Z,27
2019-02-05T07:25:47.000Z,27
2019-02-05T07:26:47.000Z,27
2019-02-05T07:27:47.000Z,27
2019-02-05T07:28:47.000Z,27
2019-02-05T07:29:47.000Z,27
2019-02-05T07:30:47.000Z,27
2019-02-05T07:31:47.000Z,27
2019-02-05T07:32:47.000Z,27
2019-02-05T07:33:47.000Z,27
2019-02-05T07:34:47.000Z,28
2019-02-05T07:35:47.000Z,28
2019-02-05T07:36:47.000Z,28
2019-02-05T07:37:47.000Z,28
2019-02-05T07:38:47.000Z,28
2019-02-05T07:39:47.000Z,28
2019-02-05T07:40:47.000Z,28
2019-02-05T07:41:47.000Z,28
2019-02-05T07:42:47.000Z,28
2019-02-05T07:43:47.000Z,28
2019-02-05T07:44:47.000Z,28
2019-02-05T07:45:47.000Z,28
2019-02-05T07:46:47.000Z,28
2019-02-05T07:48:47.000Z,28
2019-02-05T07:49:47.000Z,28
2019-02-05T07:50:47.000Z,28
2019-02-05T07:51:47.000Z,28
2019-02-05T07:52:47.000Z,28
2019-02-05T07:53:47.000Z,28
2019-02-05T07:54:47.000Z,28
2019-02-05T07:55:47.000Z,28
2019-02-05T07:56:47.000Z,28
2019-02-05T07:57:47.000Z,28
2019-02-05T07:58:47.000Z,28
2019-02-05T07:59:47.000Z,28
2019-02-05T08:00:47.000Z,28
2019-02-05T08:01:47.000Z,28
2019-02-05T08:02:47.000Z,28
2019-02-05T08:03:47.000Z,28
2019-02-05T08:04:48.000Z,28
2019-02-05T08:05:48.000Z,28
2019-02-05T08:06:48.000Z,28
2019-02-05T08:08:48.000Z,28
2019-02-05T08:09:48.000Z,28
2019-02-05T08:10:48.000Z,29
2019-02-05T08:11:48.000Z,29
2019-02-05T08:12:48.000Z,29
2019-02-05T08:13:48.000Z,28
2019-02-05T08:14:48.000Z,29
2019-02-05T08:15:48.000Z,29
2019-02-05T08:16:48.000Z,29
2019-02-05T08:17:48.000Z,29
2019-02-05T08:18:48.000Z,29
2019-02-05T08:19:48.000Z,29
2019-02-05T08:21:48.000Z,29
2019-02-05T08:22:48.000Z,29
2019-02-05T08:24:48.000Z,29
2019-02-05T08:25:48.000Z,29
2019-02-05T08:26:48.000Z,29
2019-02-05T08:27:48.000Z,29
2019-02-05T08:28:48.000Z,29
2019-02-05T08:29:48.000Z,29
2019-02-05T08:30:48.000Z,29
2019-02-05T08:31:48.000Z,29
2019-02-05T08:32:48.000Z,29
2019-02-05T08:33:48.000Z,29
2019-02-05T08:34:48.000Z,29
2019-02-05T08:35:48.000Z,29
2019-02-05T08:36:48.000Z,29
2019-02-05T08:37:48.000Z,29
2019-02-05T08:39:48.000Z,28
2019-02-05T08:40:48.000Z,28
2019-02-05T08:41:48.000Z,28
2019-02-05T08:42:48.000Z,28
2019-02-05T08:43:48.000Z,27
2019-02-05T08:44:48.000Z,27
2019-02-05T08:45:48.000Z,27
2019-02-05T08:46:48.000Z,27
2019-02-05T08:47:48.000Z,27
2019-02-05T08:48:48.000Z,27
2019-02-05T08:49:48.000Z,26
2019-02-05T08:50:48.000Z,26
2019-02-05T08:51:48.000Z,26
2019-02-05T08:53:48.000Z,26
2019-02-05T08:54:48.000Z,26
2019-02-05T08:56:48.000Z,26
2019-02-05T08:57:48.000Z,26
2019-02-05T08:59:48.000Z,26
2019-02-05T09:00:48.000Z,26
2019-02-05T09:02:48.000Z,25
2019-02-05T09:03:48.000Z,25
2019-02-05T09:04:48.000Z,25
2019-02-05T09:05:48.000Z,25
2019-02-05T09:06:48.000Z,25
2019-02-05T09:07:48.000Z,25
2019-02-05T09:08:48.000Z,25
2019-02-05T09:09:48.000Z,25
2019-02-05T09:10:48.000Z,25
2019-02-05T09:11:48.000Z,25
2019-02-05T09:12:48.000Z,25
2019-02-05T09:13:48.000Z,25
2019-02-05T09:14:48.000Z,25
2019-02-05T09:15:48.000Z,25
2019-02-05T09:16:48.000Z,25
2019-02-05T09:17:48.000Z,25
2019-02-05T09:18:48.000Z,25
2019-02-05T09:20:48.000Z,24
2019-02-05T09:21:48.000Z,24
2019-02-05T09:22:48.000Z,24
2019-02-05T09:23:48.000Z,24
2019-02-05T09:25:48.000Z,24
2019-02-05T09:27:48.000Z,24
2019-02-05T09:28:48.000Z,24
2019-02-05T09:29:48.000Z,24
2019-02-05T09:30:48.000Z,24
2019-02-05T09:31:48.000Z,24
2019-02-05T09:32:48.000Z,24
2019-02-05T09:33:48.000Z,24
2019-02-05T09:34:48.000Z,24
2019-02-05T09:35:48.000Z,24
2019-02-05T09:36:48.000Z,24
2019-02-05T09:37:48.000Z,24
2019-02-05T09:38:48.000Z,24
2019-02-05T09:39:48.000Z,24
2019-02-05T09:40:48.000Z,24
2019-02-05T09:41:48.000Z,24
2019-02-05T09:42:48.000Z,24
2019-02-05T09:43:48.000Z,24
2019-02-05T09:44:48.000Z,24
2019-02-05T09:46:48.000Z,24
2019-02-05T09:47:48.000Z,24
2019-02-05T09:48:48.000Z,24
2019-02-05T09:50:48.000Z,24
2019-02-05T09:51:48.000Z,24
2019-02-05T09:52:48.000Z,24
2019-02-05T09:53:48.000Z,24
2019-02-05T09:54:48.000Z,24
2019-02-05T09:55:48.000Z,24
2019-02-05T09:56:48.000Z,24
2019-02-05T09:57:48.000Z,24
2019-02-05T09:58:48.000Z,24
2019-02-05T09:59:48.000Z,24
2019-02-05T10:00:48.000Z,24
2019-02-05T10:01:48.000Z,24
2019-02-05T10:03:48.000Z,23
2019-02-05T10:04:48.000Z,23
2019-02-05T10:05:48.000Z,23
2019-02-05T10:06:48.000Z,23
2019-02-05T10:07:48.000Z,23
2019-02-05T10:08:48.000Z,23
2019-02-05T10:09:48.000Z,23
2019-02-05T10:10:48.000Z,23
2019-02-05T10:11:48.000Z,23
2019-02-05T10:12:48.000Z,23
2019-02-05T10:13:48.000Z,23
2019-02-05T10:14:48.000Z,23
2019-02-05T10:15:48.000Z,23
2019-02-05T10:16:48.000Z,23
2019-02-05T10:17:48.000Z,23
2019-02-05T10:18:48.000Z,23
2019-02-05T10:19:48.000Z,23
2019-02-05T10:20:48.000Z,23
2019-02-05T10:22:48.000Z,23
2019-02-05T10:23:48.000Z,23
2019-02-05T10:24:48.000Z,23
2019-02-05T10:25:48.000Z,23
2019-02-05T10:26:48.000Z,23
2019-02-05T10:27:48.000Z,23
2019-02-05T10:28:48.000Z,23
2019-02-05T10:29:48.000Z,23
2019-02-05T10:31:48.000Z,23
2019-02-05T10:32:48.000Z,23
2019-02-05T10:34:48.000Z,23
2019-02-05T10:35:48.000Z,23
2019-02-05T10:36:48.000Z,23
2019-02-05T10:37:48.000Z,23
2019-02-05T10:38:48.000Z,23
2019-02-05T10:39:48.000Z,23
2019-02-05T10:40:48.000Z,23
2019-02-05T10:41:48.000Z,23
2019-02-05T10:42:48.000Z,23
2019-02-05T10:44:48.000Z,23
2019-02-05T10:45:48.000Z,23
2019-02-05T10:46:48.000Z,23
2019-02-05T10:48:48.000Z,23
2019-02-05T10:49:48.000Z,23
2019-02-05T10:50:48.000Z,23
2019-02-05T10:51:48.000Z,23
2019-02-05T10:52:48.000Z,23
2019-02-05T10:53:48.000Z,23
2019-02-05T10:54:48.000Z,24
2019-02-05T10:56:48.000Z,24
2019-02-05T10:57:48.000Z,24
2019-02-05T10:58:48.000Z,24
2019-02-05T10:59:48.000Z,24
2019-02-05T11:00:48.000Z,24
2019-02-05T11:01:48.000Z,24
2019-02-05T11:03:48.000Z,24
2019-02-05T11:04:48.000Z,24
2019-02-05T11:06:48.000Z,24
2019-02-05T11:07:48.000Z,24
2019-02-05T11:08:48.000Z,24
2019-02-05T11:09:48.000Z,24
2019-02-05T11:10:48.000Z,24
2019-02-05T11:11:48.000Z,24
2019-02-05T11:12:48.000Z,24
2019-02-05T11:13:48.000Z,24
2019-02-05T11:14:48.000Z,24
2019-02-05T11:15:48.000Z,24
2019-02-05T11:16:48.000Z,24
2019-02-05T11:17:48.000Z,24
2019-02-05T11:18:48.000Z,24
2019-02-05T11:20:48.000Z,24
2019-02-05T11:21:48.000Z,24
2019-02-05T11:22:48.000Z,24
2019-02-05T11:23:48.000Z,24
2019-02-05T11:24:48.000Z,24
2019-02-05T11:25:48.000Z,24
2019-02-05T11:26:48.000Z,24
2019-02-05T11:27:48.000Z,24
2019-02-05T11:28:48.000Z,25
2019-02-05T11:29:48.000Z,25
2019-02-05T11:30:48.000Z,25
2019-02-05T11:31:48.000Z,25
2019-02-05T11:32:48.000Z,25
2019-02-05T11:33:48.000Z,25
2019-02-05T11:35:48.000Z,25
2019-02-05T11:36:48.000Z,25
2019-02-05T11:37:48.000Z,25
2019-02-05T11:38:48.000Z,25
2019-02-05T11:40:48.000Z,25
2019-02-05T11:41:48.000Z,25
2019-02-05T11:42:48.000Z,25
2019-02-05T11:43:48.000Z,25
2019-02-05T11:44:48.000Z,25
2019-02-05T11:45:48.000Z,25
2019-02-05T11:46:48.000Z,25
2019-02-05T11:47:48.000Z,25
2019-02-05T11:48:48.000Z,25
2019-02-05T11:49:48.000Z,25
2019-02-05T11:50:48.000Z,25
2019-02-05T11:52:48.000Z,25
2019-02-05T11:53:48.000Z,25
2019-02-05T11:54:48.000Z,25
2019-02-05T11:55:48.000Z,25
2019-02-05T11:56:48.000Z,25
2019-02-05T11:58:48.000Z,25
2019-02-05T11:59:48.000Z,25
2019-02-05T12:00:48.000Z,25
2019-02-05T12:01:48.000Z,25
2019-02-05T12:02:48.000Z,26
2019-02-05T12:03:48.000Z,26
2019-02-05T12:04:48.000Z,26
2019-02-05T12:05:48.000Z,26
2019-02-05T12:07:48.000Z,26
2019-02-05T12:08:48.000Z,26
2019-02-05T12:09:48.000Z,26
2019-02-05T12:10:48.000Z,26
2019-02-05T12:11:48.000Z,26
2019-02-05T12:12:48.000Z,26
2019-02-05T12:13:48.000Z,26
2019-02-05T12:14:48.000Z,26
2019-02-05T12:15:48.000Z,26
2019-02-05T12:17:48.000Z,26
2019-02-05T12:18:48.000Z,26
2019-02-05T12:19:48.000Z,26
2019-02-05T12:20:48.000Z,26
2019-02-05T12:21:48.000Z,26
2019-02-05T12:22:48.000Z,26
2019-02-05T12:23:48.000Z,26
2019-02-05T12:24:48.000Z,26
2019-02-05T12:26:48.000Z,26
2019-02-05T12:27:48.000Z,26
2019-02-05T12:28:48.000Z,26
2019-02-05T12:29:48.000Z,26
2019-02-05T12:30:48.000Z,26
2019-02-05T12:31:48.000Z,26
2019-02-05T12:32:48.000Z,26
2019-02-05T12:33:48.000Z,25
2019-02-05T12:34:48.000Z,25
2019-02-05T12:35:48.000Z,25
2019-02-05T12:36:48.000Z,25
2019-02-05T12:38:48.000Z,25
2019-02-05T12:39:48.000Z,25
2019-02-05T12:40:48.000Z,25
2019-02-05T12:41:48.000Z,25
2019-02-05T12:42:48.000Z,25
2019-02-05T12:43:48.000Z,25
2019-02-05T12:44:48.000Z,25
2019-02-05T12:45:48.000Z,25
2019-02-05T12:46:48.000Z,25
2019-02-05T12:47:48.000Z,25
2019-02-05T12:48:48.000Z,25
2019-02-05T12:49:48.000Z,25
2019-02-05T12:51:48.000Z,25
2019-02-05T12:52:48.000Z,25
2019-02-05T12:53:48.000Z,25
2019-02-05T12:54:48.000Z,25
2019-02-05T12:55:48.000Z,25
2019-02-05T12:56:48.000Z,24
2019-02-05T12:57:48.000Z,24
2019-02-05T12:58:48.000Z,24
2019-02-05T12:59:48.000Z,24
2019-02-05T13:00:48.000Z,24
2019-02-05T13:01:48.000Z,24
2019-02-05T13:02:48.000Z,24
2019-02-05T13:04:48.000Z,24
2019-02-05T13:05:48.000Z,24
2019-02-05T13:06:48.000Z,24
2019-02-05T13:07:48.000Z,24
2019-02-05T13:08:48.000Z,24
2019-02-05T13:09:48.000Z,24
2019-02-05T13:10:48.000Z,24
2019-02-05T13:11:48.000Z,24
2019-02-05T13:12:48.000Z,24
2019-02-05T13:13:48.000Z,24
2019-02-05T13:14:48.000Z,24
2019-02-05T13:15:48.000Z,24
2019-02-05T13:16:48.000Z,24
2019-02-05T13:17:48.000Z,24
2019-02-05T13:18:48.000Z,24
2019-02-05T13:19:48.000Z,24
2019-02-05T13:21:48.000Z,24
2019-02-05T13:22:48.000Z,24
2019-02-05T13:24:48.000Z,24
2019-02-05T13:25:48.000Z,24
2019-02-05T13:27:48.000Z,24
2019-02-05T13:28:48.000Z,24
2019-02-05T13:29:48.000Z,24
2019-02-05T13:30:48.000Z,24
2019-02-05T13:31:48.000Z,24
2019-02-05T13:32:48.000Z,24
2019-02-05T13:33:48.000Z,24
2019-02-05T13:34:48.000Z,24
2019-02-05T13:35:48.000Z,24
2019-02-05T13:36:48.000Z,24
2019-02-05T13:37:48.000Z,23
2019-02-05T13:38:48.000Z,23
2019-02-05T13:39:48.000Z,23
2019-02-05T13:40:48.000Z,23
2019-02-05T13:41:48.000Z,23
2019-02-05T13:42:48.000Z,23
2019-02-05T13:43:48.000Z,23
2019-02-05T13:45:48.000Z,23
2019-02-05T13:46:48.000Z,23
2019-02-05T13:47:48.000Z,23
2019-02-05T13:48:48.000Z,23
2019-02-05T13:50:48.000Z,23
2019-02-05T13:51:48.000Z,23
2019-02-05T13:52:48.000Z,23
2019-02-05T13:53:48.000Z,23
2019-02-05T13:55:48.000Z,23
2019-02-05T13:56:48.000Z,23
2019-02-05T13:57:48.000Z,23
2019-02-05T13:58:48.000Z,23
2019-02-05T13:59:48.000Z,23
2019-02-05T14:00:48.000Z,23
2019-02-05T14:01:48.000Z,23
2019-02-05T14:03:48.000Z,23
2019-02-05T14:04:48.000Z,23
2019-02-05T14:05:48.000Z,23
2019-02-05T14:06:48.000Z,23
2019-02-05T14:07:48.000Z,23
2019-02-05T14:08:48.000Z,24
2019-02-05T14:09:48.000Z,24
2019-02-05T14:11:48.000Z,24
2019-02-05T14:12:48.000Z,24
2019-02-05T14:13:48.000Z,24
2019-02-05T14:14:48.000Z,24
2019-02-05T14:15:48.000Z,24
2019-02-05T14:16:48.000Z,24
2019-02-05T14:18:48.000Z,24
2019-02-05T14:19:48.000Z,24
2019-02-05T14:20:48.000Z,24
2019-02-05T14:22:48.000Z,24
2019-02-05T14:23:48.000Z,24
2019-02-05T14:24:48.000Z,24
2019-02-05T14:25:48.000Z,24
2019-02-05T14:26:48.000Z,24
2019-02-05T14:27:48.000Z,24
2019-02-05T14:28:48.000Z,24
2019-02-05T14:29:48.000Z,24
2019-02-05T14:30:48.000Z,24
2019-02-05T14:31:48.000Z,24
2019-02-05T14:32:48.000Z,24
2019-02-05T14:33:48.000Z,24
2019-02-05T14:34:48.000Z,24
2019-02-05T14:35:48.000Z,24
2019-02-05T14:36:48.000Z,24
2019-02-05T14:37:48.000Z,24
2019-02-05T14:38:48.000Z,24
2019-02-05T14:39:48.000Z,25
2019-02-05T14:40:48.000Z,25
2019-02-05T14:41:48.000Z,25
2019-02-05T14:42:48.000Z,25
2019-02-05T14:43:48.000Z,25
2019-02-05T14:44:48.000Z,25
2019-02-05T14:45:48.000Z,25
2019-02-05T14:47:48.000Z,25
2019-02-05T14:48:48.000Z,25
2019-02-05T14:49:48.000Z,24
2019-02-05T14:50:48.000Z,24
2019-02-05T14:51:48.000Z,24
2019-02-05T14:52:48.000Z,24
2019-02-05T14:53:48.000Z,24
2019-02-05T14:54:48.000Z,24
2019-02-05T14:55:48.000Z,24
2019-02-05T14:56:48.000Z,24
2019-02-05T14:57:48.000Z,24
2019-02-05T14:58:48.000Z,24
2019-02-05T14:59:48.000Z,24
2019-02-05T15:00:48.000Z,24
2019-02-05T15:01:48.000Z,24
2019-02-05T15:02:48.000Z,24
2019-02-05T15:03:48.000Z,24
2019-02-05T15:04:48.000Z,24
2019-02-05T15:05:48.000Z,24
2019-02-05T15:06:48.000Z,24
2019-02-05T15:07:48.000Z,24
2019-02-05T15:08:48.000Z,24
2019-02-05T15:09:48.000Z,24
2019-02-05T15:11:48.000Z,24
2019-02-05T15:12:48.000Z,24
2019-02-05T15:13:48.000Z,24
2019-02-05T15:14:48.000Z,24
2019-02-05T15:15:48.000Z,24
2019-02-05T15:16:48.000Z,24
2019-02-05T15:18:48.000Z,24
2019-02-05T15:19:48.000Z,24
2019-02-05T15:20:48.000Z,24
2019-02-05T15:21:48.000Z,24
2019-02-05T15:23:48.000Z,24
2019-02-05T15:25:48.000Z,24
2019-02-05T15:27:48.000Z,24
2019-02-05T15:28:48.000Z,24
2019-02-05T15:29:48.000Z,24
2019-02-05T15:30:48.000Z,24
2019-02-05T15:31:48.000Z,24
2019-02-05T15:32:48.000Z,24
2019-02-05T15:33:48.000Z,24
2019-02-05T15:34:48.000Z,24
2019-02-05T15:35:48.000Z,24
2019-02-05T15:36:48.000Z,24
2019-02-05T15:37:48.000Z,24
2019-02-05T15:38:48.000Z,24
2019-02-05T15:40:48.000Z,24
2019-02-05T15:41:48.000Z,24
2019-02-05T15:42:48.000Z,24
2019-02-05T15:43:48.000Z,24
2019-02-05T15:44:48.000Z,24
2019-02-05T15:45:48.000Z,24
2019-02-05T15:47:48.000Z,24
2019-02-05T15:49:48.000Z,24
2019-02-05T15:50:48.000Z,24
2019-02-05T15:52:48.000Z,24
2019-02-05T15:53:48.000Z,24
2019-02-05T15:54:48.000Z,24
2019-02-05T15:55:48.000Z,24
2019-02-05T15:56:48.000Z,24